Current | Forecast
Updated: 8:00 PM JST on August 16, 2017
Observed at Obihiro, Japan
Temperature 57°F
Humidity 88%
Dew Point 54°F
Wind SE at 5 mph
Pressure 29.95 in (Rising)
Conditions Partly Cloudy
Visibility 6.2 miles
UV 0 out of 16
Clouds (FEW) : 1500 ft
Yesterday's Maximum 68°F
Yesterday's Minimum 61°F approx.
Yesterday's Heating Degree Days 1 approx.
Sunrise4:37 AM JST
Sunset6:28 PM JST
Moon Rise11:37 PM JST
Moon Set1:21 PM JST
Moon PhaseMoon Phase
Waning Crescent
Raw METARMETAR RJCB 161100Z 13004KT 9999 FEW015 SCT/// 14/12 Q1014


Monday
. High: 60° F.
Tuesday
. High: 57° F.
Wednesday
. High: 55° F.
Thursday
. High: 55° F.
Friday
. High: 53° F.
Saturday
. High: 53° F.
Sunday
. High: 55° F.
Monday
. High: 51° F.

Units: English | Metric

Find the Weather for any City, State or Zipcode, or Country:

U.S. State List | Severe Weather | Tropical Storms | Ski Conditions
United States | Canada | Central America | South America | Asia | Europe | Australia | Africa | Islands

Weather Underground

© Copyright 2017
The Weather Company, LLC